createdAt,value
2023-09-17T00:01:26.896Z,42.44
2023-09-17T00:03:54.551Z,42.16
2023-09-17T00:06:22.002Z,42.48
2023-09-17T00:08:49.258Z,42.06
2023-09-17T00:11:16.653Z,42.41
2023-09-17T00:13:43.909Z,42.27
2023-09-17T00:16:12.196Z,42.21
2023-09-17T00:18:39.811Z,42.17
2023-09-17T00:21:07.637Z,42.55
2023-09-17T00:23:35.315Z,42.28
2023-09-17T00:26:02.620Z,42.35
2023-09-17T00:28:29.687Z,42.43
2023-09-17T00:30:56.889Z,42.50
2023-09-17T00:33:24.551Z,42.49
2023-09-17T00:35:53.811Z,42.55
2023-09-17T00:38:21.232Z,42.43
2023-09-17T00:40:50.581Z,42.61
2023-09-17T00:43:19.325Z,42.54
2023-09-17T00:45:46.917Z,42.77
2023-09-17T00:48:14.346Z,42.38
2023-09-17T00:50:41.999Z,42.58
2023-09-17T00:53:09.919Z,42.73
2023-09-17T00:55:38.608Z,42.72
2023-09-17T00:58:07.343Z,42.54
2023-09-17T01:00:39.407Z,42.53
2023-09-17T01:03:09.657Z,42.87
2023-09-17T01:05:43.445Z,42.48
2023-09-17T01:08:11.315Z,42.95
2023-09-17T01:10:42.555Z,42.73
2023-09-17T01:13:10.614Z,42.70
2023-09-17T01:15:38.867Z,43.00
2023-09-17T01:18:08.707Z,42.79
2023-09-17T01:21:16.288Z,42.83
2023-09-17T01:23:53.294Z,43.17
2023-09-17T01:26:27.871Z,42.51
2023-09-17T01:28:55.467Z,42.91
2023-09-17T01:31:24.793Z,42.82
2023-09-17T01:33:54.648Z,42.85
2023-09-17T01:36:35.191Z,42.86
2023-09-17T01:39:14.661Z,42.85
2023-09-17T01:41:42.717Z,43.01
2023-09-17T01:44:11.263Z,42.69
2023-09-17T01:46:40.438Z,43.05
2023-09-17T01:49:13.369Z,43.19
2023-09-17T01:51:41.088Z,43.22
2023-09-17T01:54:08.473Z,43.11
2023-09-17T01:56:43.151Z,43.19
2023-09-17T01:59:10.566Z,43.30
2023-09-17T02:01:38.210Z,43.39
2023-09-17T02:04:05.579Z,43.97
2023-09-17T02:06:32.770Z,43.64
2023-09-17T02:08:59.946Z,43.36
2023-09-17T02:11:27.290Z,43.73
2023-09-17T02:13:54.503Z,43.44
2023-09-17T02:16:22.330Z,43.42
2023-09-17T02:18:49.637Z,43.40
2023-09-17T02:21:17.045Z,43.44
2023-09-17T02:23:45.614Z,43.25
2023-09-17T02:26:13.367Z,43.33
2023-09-17T02:28:40.467Z,43.30
2023-09-17T02:31:08.112Z,43.51
2023-09-17T02:33:35.274Z,43.57
2023-09-17T02:36:04.410Z,43.42
2023-09-17T02:38:31.478Z,43.51
2023-09-17T02:40:58.597Z,43.48
2023-09-17T02:43:25.835Z,43.67
2023-09-17T02:45:55.259Z,43.70
2023-09-17T02:48:22.498Z,43.49
2023-09-17T02:50:49.848Z,43.66
2023-09-17T02:53:18.232Z,43.40
2023-09-17T02:55:46.770Z,43.54
2023-09-17T02:58:14.336Z,43.56
2023-09-17T03:00:44.414Z,43.60
2023-09-17T03:03:12.256Z,43.58
2023-09-17T03:05:39.435Z,43.61
2023-09-17T03:08:09.986Z,43.79
2023-09-17T03:10:43.587Z,43.91
2023-09-17T03:13:13.905Z,43.66
2023-09-17T03:15:41.545Z,43.81
2023-09-17T03:18:09.025Z,43.88
2023-09-17T03:20:36.856Z,43.87
2023-09-17T03:23:05.643Z,43.96
2023-09-17T03:25:35.538Z,43.96
2023-09-17T03:28:02.904Z,43.73
2023-09-17T03:30:30.316Z,43.62
2023-09-17T03:33:04.790Z,43.84
2023-09-17T03:35:40.818Z,43.78
2023-09-17T03:38:08.608Z,43.96
2023-09-17T03:40:35.906Z,43.78
2023-09-17T03:43:04.643Z,43.98
2023-09-17T03:45:32.331Z,43.93
2023-09-17T03:47:59.904Z,43.90
2023-09-17T03:50:29.214Z,44.24
2023-09-17T03:53:00.144Z,44.14
2023-09-17T03:55:27.521Z,44.10
2023-09-17T03:57:57.536Z,44.00
2023-09-17T04:00:26.514Z,43.85
2023-09-17T04:02:54.318Z,43.93
2023-09-17T04:05:22.790Z,43.88
2023-09-17T04:07:49.999Z,43.77
2023-09-17T04:10:18.675Z,43.74
2023-09-17T04:12:46.724Z,43.90
2023-09-17T04:15:20.383Z,43.79
2023-09-17T04:17:50.954Z,44.01
2023-09-17T04:20:22.446Z,44.07
2023-09-17T04:22:51.795Z,43.82
2023-09-17T04:25:21.646Z,43.95
2023-09-17T04:27:51.088Z,43.75
2023-09-17T04:30:21.098Z,43.85
2023-09-17T04:32:51.240Z,43.92
2023-09-17T04:35:19.841Z,43.87
2023-09-17T04:37:50.267Z,43.95
2023-09-17T04:40:25.968Z,44.07
2023-09-17T04:42:53.695Z,44.02
2023-09-17T04:45:39.878Z,44.10
2023-09-17T04:48:12.958Z,44.18
2023-09-17T04:50:46.412Z,44.45
2023-09-17T04:53:16.113Z,44.43
2023-09-17T04:55:45.722Z,44.29
2023-09-17T04:58:15.360Z,44.60
2023-09-17T05:00:45.372Z,45.12
2023-09-17T05:03:13.208Z,44.57
2023-09-17T05:05:40.702Z,44.73
2023-09-17T05:08:09.029Z,44.82
2023-09-17T05:10:36.558Z,44.78
2023-09-17T05:13:04.155Z,44.79
2023-09-17T05:15:31.482Z,45.22
2023-09-17T05:18:00.008Z,44.82
2023-09-17T05:20:28.250Z,44.93
2023-09-17T05:22:57.392Z,45.19
2023-09-17T05:25:24.762Z,45.17
2023-09-17T05:27:52.051Z,45.18
2023-09-17T05:30:19.137Z,45.10
2023-09-17T05:32:46.536Z,45.26
2023-09-17T05:35:14.443Z,45.27
2023-09-17T05:37:41.685Z,45.10
2023-09-17T05:40:10.341Z,45.29
2023-09-17T05:42:38.873Z,45.02
2023-09-17T05:45:06.700Z,45.22
2023-09-17T05:47:34.304Z,45.30
2023-09-17T05:50:01.741Z,45.16
2023-09-17T05:52:34.393Z,45.30
2023-09-17T05:55:05.275Z,45.32
2023-09-17T05:57:34.649Z,45.33
2023-09-17T06:00:05.058Z,45.12
2023-09-17T06:02:42.163Z,45.42
2023-09-17T06:05:11.723Z,45.21
2023-09-17T06:07:39.028Z,45.16
2023-09-17T06:10:07.095Z,45.12
2023-09-17T06:12:34.171Z,45.23
2023-09-17T06:15:02.685Z,45.11
2023-09-17T06:17:29.884Z,45.32
2023-09-17T06:19:57.033Z,45.20
2023-09-17T06:22:24.909Z,45.20
2023-09-17T06:24:52.601Z,45.21
2023-09-17T06:27:19.818Z,45.25
2023-09-17T06:29:46.879Z,45.28
2023-09-17T06:32:15.225Z,45.23
2023-09-17T06:34:42.820Z,45.41
2023-09-17T06:37:10.402Z,45.10
2023-09-17T06:39:37.820Z,45.12
2023-09-17T06:42:05.815Z,45.11
2023-09-17T06:44:34.006Z,45.33
2023-09-17T06:47:01.135Z,45.27
2023-09-17T06:49:28.887Z,44.72
2023-09-17T06:51:56.877Z,45.34
2023-09-17T06:54:23.932Z,45.27
2023-09-17T06:56:53.018Z,45.38
2023-09-17T06:59:20.038Z,45.32
2023-09-17T07:01:47.646Z,45.06
2023-09-17T07:04:15.017Z,45.17
2023-09-17T07:06:42.323Z,45.18
2023-09-17T07:09:09.420Z,44.86
2023-09-17T07:11:36.508Z,44.91
2023-09-17T07:14:10.288Z,45.01
2023-09-17T07:16:38.668Z,44.96
2023-09-17T07:19:06.464Z,44.97
2023-09-17T07:21:33.732Z,44.78
2023-09-17T07:24:00.763Z,45.35
2023-09-17T07:26:29.237Z,44.93
2023-09-17T07:28:56.452Z,44.73
2023-09-17T07:31:23.931Z,44.86
2023-09-17T07:33:51.343Z,44.97
2023-09-17T07:36:18.795Z,45.08
2023-09-17T07:38:45.851Z,45.05
2023-09-17T07:41:13.067Z,44.98
2023-09-17T07:43:40.289Z,45.10
2023-09-17T07:46:07.602Z,45.02
2023-09-17T07:48:35.744Z,45.25
2023-09-17T07:51:02.849Z,45.26
2023-09-17T07:53:29.865Z,45.08
2023-09-17T07:55:57.648Z,45.13
2023-09-17T07:58:24.923Z,45.00
2023-09-17T08:00:52.015Z,45.21
2023-09-17T08:03:20.055Z,45.33
2023-09-17T08:05:48.633Z,44.97
2023-09-17T08:08:15.845Z,45.13
2023-09-17T08:10:43.539Z,45.27
2023-09-17T08:13:10.696Z,44.91
2023-09-17T08:15:38.991Z,45.32
2023-09-17T08:18:06.548Z,45.51
2023-09-17T08:20:34.027Z,45.25
2023-09-17T08:23:01.217Z,45.13
2023-09-17T08:25:28.438Z,45.21
2023-09-17T08:27:55.563Z,45.50
2023-09-17T08:30:22.610Z,45.62
2023-09-17T08:32:49.915Z,45.81
2023-09-17T08:35:17.232Z,45.66
2023-09-17T08:37:45.310Z,45.79
2023-09-17T08:40:15.854Z,45.97
2023-09-17T08:42:43.930Z,45.73
2023-09-17T08:45:12.724Z,46.06
2023-09-17T08:47:40.707Z,45.74
2023-09-17T08:50:10.491Z,46.07
2023-09-17T08:52:58.260Z,45.79
2023-09-17T08:55:25.693Z,46.00
2023-09-17T08:58:10.335Z,46.36
2023-09-17T09:00:41.186Z,46.46
2023-09-17T09:03:09.574Z,45.91
2023-09-17T09:05:37.584Z,46.19
2023-09-17T09:08:06.249Z,46.16
2023-09-17T09:10:33.552Z,46.44
2023-09-17T09:13:01.305Z,46.30
2023-09-17T09:15:28.674Z,46.28
2023-09-17T09:17:56.597Z,46.65
2023-09-17T09:20:24.180Z,46.47
2023-09-17T09:22:51.519Z,46.55
2023-09-17T09:25:19.889Z,46.53
2023-09-17T09:27:47.247Z,46.85
2023-09-17T09:30:18.043Z,46.83
2023-09-17T09:32:46.759Z,46.44
2023-09-17T09:35:14.267Z,46.42
2023-09-17T09:37:41.429Z,46.90
2023-09-17T09:40:09.668Z,46.81
2023-09-17T09:42:37.248Z,46.84
2023-09-17T09:45:04.959Z,46.76
2023-09-17T09:47:33.166Z,46.39
2023-09-17T09:50:02.165Z,46.80
2023-09-17T09:52:30.260Z,46.79
2023-09-17T09:54:57.536Z,46.54
2023-09-17T09:57:26.771Z,46.48
2023-09-17T09:59:54.535Z,46.87
2023-09-17T10:02:23.326Z,46.93
2023-09-17T10:04:50.782Z,46.88
2023-09-17T10:07:18.930Z,46.63
2023-09-17T10:09:47.215Z,46.90
2023-09-17T10:12:14.623Z,46.61
2023-09-17T10:14:42.516Z,46.49
2023-09-17T10:17:12.321Z,46.71
2023-09-17T10:19:41.636Z,46.90
2023-09-17T10:22:11.374Z,46.75
2023-09-17T10:24:39.860Z,46.56
2023-09-17T10:27:08.057Z,46.88
2023-09-17T10:29:39.783Z,46.61
2023-09-17T10:32:10.523Z,46.63
2023-09-17T10:34:38.290Z,46.94
2023-09-17T10:37:06.276Z,46.63
2023-09-17T10:39:34.575Z,46.77
2023-09-17T10:42:06.159Z,46.78
2023-09-17T10:44:38.058Z,46.81
2023-09-17T10:47:12.414Z,46.49
2023-09-17T10:49:44.026Z,46.80
2023-09-17T10:52:13.418Z,46.87
2023-09-17T10:54:40.723Z,46.49
2023-09-17T10:57:24.077Z,46.70
2023-09-17T10:59:53.614Z,46.76
2023-09-17T11:02:23.346Z,46.41
2023-09-17T11:04:52.186Z,46.71
2023-09-17T11:07:19.984Z,46.62
2023-09-17T11:09:47.863Z,46.38
2023-09-17T11:12:15.092Z,46.39
2023-09-17T11:14:47.272Z,46.41
2023-09-17T11:17:19.431Z,46.25
2023-09-17T11:19:46.679Z,46.40
2023-09-17T11:22:14.363Z,46.75
2023-09-17T11:24:45.478Z,46.41
2023-09-17T11:27:13.537Z,46.46
2023-09-17T11:29:42.669Z,46.02
2023-09-17T11:32:10.304Z,46.08
2023-09-17T11:34:42.383Z,46.28
2023-09-17T11:37:09.577Z,46.36
2023-09-17T11:39:38.009Z,45.88
2023-09-17T11:42:14.227Z,45.90
2023-09-17T11:44:43.779Z,45.99
2023-09-17T11:47:13.892Z,45.98
2023-09-17T11:49:41.916Z,45.84
2023-09-17T11:52:13.222Z,46.34
2023-09-17T11:54:52.699Z,45.77
2023-09-17T11:57:27.862Z,46.33
2023-09-17T11:59:56.827Z,45.68
2023-09-17T12:02:24.830Z,46.00
2023-09-17T12:04:53.466Z,45.71
2023-09-17T12:07:21.682Z,45.51
2023-09-17T12:10:08.048Z,45.93
2023-09-17T12:12:37.916Z,45.66
2023-09-17T12:15:06.432Z,45.41
2023-09-17T12:17:43.918Z,45.73
2023-09-17T12:20:58.115Z,45.61
2023-09-17T12:24:07.694Z,45.16
2023-09-17T12:27:26.324Z,45.11
2023-09-17T12:29:54.868Z,45.32
2023-09-17T12:32:29.204Z,44.97
2023-09-17T12:34:58.012Z,45.41
2023-09-17T12:37:26.878Z,45.56
2023-09-17T12:39:54.394Z,45.18
2023-09-17T12:42:22.481Z,45.13
2023-09-17T12:44:51.069Z,45.05
